createdAt,value
2022-12-03T00:04:05.054Z,8.97
2022-12-03T00:09:08.715Z,9.83
2022-12-03T00:14:13.769Z,10.37
2022-12-03T00:19:17.295Z,9.67
2022-12-03T00:24:20.883Z,9.50
2022-12-03T00:29:25.871Z,9.60
2022-12-03T00:34:29.447Z,10.00
2022-12-03T00:39:33.022Z,9.83
2022-12-03T00:44:38.021Z,9.80
2022-12-03T00:49:41.873Z,9.67
2022-12-03T00:54:45.585Z,9.63
2022-12-03T00:59:50.551Z,9.37
2022-12-03T01:04:54.321Z,9.70
2022-12-03T01:09:58.130Z,9.80
2022-12-03T01:15:03.357Z,9.37
2022-12-03T01:20:09.032Z,9.90
2022-12-03T01:25:12.584Z,9.53
2022-12-03T01:30:17.720Z,8.90
2022-12-03T01:35:21.203Z,9.23
2022-12-03T01:40:25.021Z,9.50
2022-12-03T01:45:29.980Z,9.93
2022-12-03T01:50:34.696Z,10.00
2022-12-03T01:55:38.920Z,9.73
2022-12-03T02:00:43.869Z,10.23
2022-12-03T02:05:47.384Z,9.90
2022-12-03T02:10:52.038Z,9.30
2022-12-03T02:15:57.144Z,9.37
2022-12-03T02:21:08.205Z,10.07
2022-12-03T02:26:13.156Z,9.40
2022-12-03T02:31:16.727Z,9.97
2022-12-03T02:36:20.612Z,8.90
2022-12-03T02:41:42.704Z,9.57
2022-12-03T02:46:46.215Z,8.97
2022-12-03T02:51:50.152Z,8.67
2022-12-03T02:56:55.113Z,9.13
2022-12-03T03:01:58.809Z,9.30
2022-12-03T03:07:02.344Z,9.00
2022-12-03T03:12:07.847Z,10.03
2022-12-03T03:17:11.746Z,8.27
2022-12-03T03:22:15.183Z,9.03
2022-12-03T03:27:20.166Z,9.07
2022-12-03T03:32:23.649Z,8.67
2022-12-03T03:37:27.500Z,9.37
2022-12-03T03:42:32.512Z,9.73
2022-12-03T03:47:36.163Z,9.17
2022-12-03T03:52:40.605Z,9.53
2022-12-03T03:57:45.481Z,8.90
2022-12-03T04:02:48.930Z,8.33
2022-12-03T04:07:52.520Z,8.73
2022-12-03T04:12:57.426Z,9.20
2022-12-03T04:18:18.048Z,7.03
2022-12-03T04:23:24.951Z,9.07
2022-12-03T04:28:50.801Z,8.57
2022-12-03T04:34:12.043Z,9.87
2022-12-03T04:39:15.489Z,9.07
2022-12-03T04:44:36.446Z,8.63
2022-12-03T04:49:41.743Z,9.80
2022-12-03T04:54:45.341Z,9.43
2022-12-03T04:59:50.154Z,9.00
2022-12-03T05:04:53.865Z,9.60
2022-12-03T05:09:57.575Z,9.23
2022-12-03T05:15:02.405Z,9.73
2022-12-03T05:20:23.973Z,9.40
2022-12-03T05:25:27.443Z,9.47
2022-12-03T05:30:32.336Z,8.97
2022-12-03T05:35:35.748Z,9.20
2022-12-03T05:40:39.302Z,8.90
2022-12-03T05:45:44.954Z,8.70
2022-12-03T05:50:48.637Z,9.00
2022-12-03T05:55:52.109Z,9.13
2022-12-03T06:00:56.958Z,8.17
2022-12-03T06:06:00.483Z,9.17
2022-12-03T06:11:04.078Z,9.33
2022-12-03T06:16:09.372Z,8.87
2022-12-03T06:21:12.886Z,9.37
2022-12-03T06:26:16.649Z,8.80
2022-12-03T06:31:21.542Z,9.23
2022-12-03T06:36:26.243Z,9.47
2022-12-03T06:41:29.717Z,8.87
2022-12-03T06:46:34.861Z,8.47
2022-12-03T06:51:38.846Z,9.43
2022-12-03T06:56:45.350Z,8.07
2022-12-03T07:01:50.841Z,7.97
2022-12-03T07:06:54.348Z,7.73
2022-12-03T07:11:57.793Z,7.53
2022-12-03T07:17:02.675Z,6.93
2022-12-03T07:22:06.398Z,8.80
2022-12-03T07:27:09.872Z,8.17
2022-12-03T07:32:14.823Z,8.47
2022-12-03T07:37:22.840Z,8.67
2022-12-03T07:42:27.195Z,7.87
2022-12-03T07:47:32.168Z,7.43
2022-12-03T07:52:35.662Z,7.80
2022-12-03T07:57:39.366Z,7.50
2022-12-03T08:02:44.501Z,7.60
2022-12-03T08:07:48.097Z,7.23
2022-12-03T08:12:51.730Z,7.50
2022-12-03T08:17:58.872Z,7.13
2022-12-03T08:23:08.771Z,7.20
2022-12-03T08:28:19.074Z,8.50
2022-12-03T08:33:28.762Z,8.20
2022-12-03T08:38:32.313Z,7.70
2022-12-03T08:43:42.185Z,8.10
2022-12-03T08:48:49.446Z,7.87
2022-12-03T08:54:01.821Z,7.80
2022-12-03T08:59:23.146Z,8.13
2022-12-03T09:04:31.947Z,7.50
2022-12-03T09:09:35.792Z,7.93
2022-12-03T09:14:39.215Z,9.07
2022-12-03T09:19:46.391Z,8.60
2022-12-03T09:24:49.986Z,9.23
2022-12-03T09:29:53.390Z,9.07
2022-12-03T09:34:58.524Z,8.90
2022-12-03T09:40:02.155Z,8.80
2022-12-03T09:45:11.036Z,9.20
2022-12-03T09:50:20.353Z,8.10
2022-12-03T09:55:26.764Z,8.40
2022-12-03T10:00:31.926Z,8.50
2022-12-03T10:05:36.786Z,7.80
2022-12-03T10:10:41.777Z,7.93
2022-12-03T10:15:45.116Z,7.97
2022-12-03T10:20:50.298Z,9.00
2022-12-03T10:25:55.511Z,7.87
2022-12-03T10:31:00.105Z,8.27
2022-12-03T10:36:20.569Z,8.00
2022-12-03T10:41:26.774Z,7.33
2022-12-03T10:46:30.333Z,7.37
2022-12-03T10:51:35.481Z,7.70
2022-12-03T10:56:38.923Z,6.87
2022-12-03T11:01:42.479Z,6.83
2022-12-03T11:06:47.540Z,6.83
2022-12-03T11:11:51.245Z,6.23
2022-12-03T11:17:10.142Z,6.67
2022-12-03T11:22:29.879Z,7.27
2022-12-03T11:27:33.305Z,7.33
2022-12-03T11:33:23.229Z,6.53
2022-12-03T11:38:56.905Z,6.33
2022-12-03T11:44:30.471Z,6.50
2022-12-03T11:49:37.677Z,7.13
2022-12-03T11:54:42.522Z,6.77
2022-12-03T12:00:02.560Z,6.27
2022-12-03T12:05:21.330Z,6.40
2022-12-03T12:10:49.896Z,6.27
2022-12-03T12:15:56.384Z,6.40
2022-12-03T12:21:32.899Z,6.40
2022-12-03T12:26:38.049Z,6.87
2022-12-03T12:31:41.632Z,6.97
2022-12-03T12:36:45.523Z,6.40
2022-12-03T12:41:53.197Z,6.97
2022-12-03T12:47:00.102Z,6.60
2022-12-03T12:52:06.343Z,7.13
2022-12-03T12:57:15.766Z,6.83
2022-12-03T13:02:44.923Z,7.57
2022-12-03T13:07:48.732Z,7.53
2022-12-03T13:12:53.552Z,6.33
2022-12-03T13:17:58.354Z,6.70
2022-12-03T13:23:01.781Z,6.40
2022-12-03T13:28:09.858Z,6.73
2022-12-03T13:33:19.112Z,6.83
2022-12-03T13:38:25.327Z,6.63
2022-12-03T13:43:35.998Z,7.00
2022-12-03T13:48:45.484Z,7.20
2022-12-03T13:53:49.012Z,7.43
2022-12-03T13:58:55.599Z,7.67
2022-12-03T14:03:59.224Z,8.70
2022-12-03T14:09:05.433Z,7.30
2022-12-03T14:14:12.327Z,7.50
2022-12-03T14:19:16.105Z,7.37
2022-12-03T14:24:19.545Z,7.43
2022-12-03T14:29:24.441Z,7.07
2022-12-03T14:34:29.358Z,7.80
2022-12-03T14:39:34.428Z,8.50
2022-12-03T14:44:42.324Z,8.03
2022-12-03T14:49:46.108Z,7.67
2022-12-03T14:54:49.637Z,8.00
2022-12-03T14:59:55.051Z,7.97
2022-12-03T15:05:01.063Z,7.93
2022-12-03T15:10:08.656Z,7.23
2022-12-03T15:15:14.250Z,5.90
2022-12-03T15:20:19.764Z,8.43
2022-12-03T15:25:25.639Z,6.67
2022-12-03T15:30:35.750Z,6.27
2022-12-03T15:35:39.477Z,6.70
2022-12-03T15:40:45.458Z,12.93
2022-12-03T15:45:52.044Z,9.57
2022-12-03T15:51:01.571Z,9.27
2022-12-03T15:56:06.683Z,9.63
2022-12-03T16:01:13.935Z,9.73
2022-12-03T16:06:18.743Z,8.80
2022-12-03T16:11:22.712Z,9.07
2022-12-03T16:16:28.425Z,7.87
2022-12-03T16:21:34.831Z,7.67
2022-12-03T16:26:38.626Z,9.40
2022-12-03T16:31:43.754Z,10.33
2022-12-03T16:36:47.922Z,10.13
2022-12-03T16:41:53.003Z,11.43
2022-12-03T16:46:59.576Z,10.50
2022-12-03T16:52:03.592Z,9.40
2022-12-03T16:57:08.882Z,9.10
2022-12-03T17:02:14.847Z,8.80
2022-12-03T17:07:19.124Z,9.70
2022-12-03T17:12:23.434Z,8.43
2022-12-03T17:17:28.889Z,8.60
2022-12-03T17:22:32.951Z,8.63
2022-12-03T17:27:40.805Z,9.13
2022-12-03T17:32:51.057Z,9.53
2022-12-03T17:37:54.728Z,8.27
2022-12-03T17:42:58.588Z,8.10
2022-12-03T17:48:04.868Z,6.97
2022-12-03T17:53:10.853Z,7.87
2022-12-03T17:58:17.858Z,10.33
2022-12-03T18:03:23.529Z,65.93
2022-12-03T18:08:27.556Z,54.60
2022-12-03T18:13:31.418Z,46.43
2022-12-03T18:18:36.895Z,33.23
2022-12-03T18:23:41.138Z,21.33
2022-12-03T18:28:46.835Z,16.30
2022-12-03T18:33:54.021Z,12.60
2022-12-03T18:39:01.339Z,9.23
2022-12-03T18:44:10.191Z,8.83
2022-12-03T18:49:16.033Z,8.97
2022-12-03T18:54:20.330Z,46.57
2022-12-03T18:59:24.981Z,45.10
2022-12-03T19:04:31.570Z,19.07
2022-12-03T19:09:37.442Z,11.80
2022-12-03T19:14:45.155Z,10.13
2022-12-03T19:19:54.486Z,21.90
2022-12-03T19:25:00.027Z,15.03
2022-12-03T19:30:05.920Z,27.83
2022-12-03T19:35:12.886Z,28.70
2022-12-03T19:40:18.444Z,19.43
2022-12-03T19:45:22.904Z,12.77
2022-12-03T19:50:34.494Z,18.63
2022-12-03T19:55:40.729Z,15.17
2022-12-03T20:00:45.391Z,11.87
2022-12-03T20:05:52.321Z,12.70
2022-12-03T20:10:57.476Z,12.07
2022-12-03T20:16:05.492Z,11.23
2022-12-03T20:21:12.954Z,10.30
2022-12-03T20:26:22.519Z,9.67
2022-12-03T20:31:31.424Z,11.30
2022-12-03T20:36:38.455Z,12.07
2022-12-03T20:41:43.232Z,13.50
2022-12-03T20:46:52.557Z,12.03
2022-12-03T20:52:04.501Z,11.27
2022-12-03T20:57:09.879Z,11.10
2022-12-03T21:02:15.699Z,11.27
2022-12-03T21:07:22.101Z,10.27
2022-12-03T21:12:29.330Z,10.10
2022-12-03T21:17:33.762Z,10.40
2022-12-03T21:22:39.923Z,10.43
2022-12-03T21:27:44.358Z,10.67
2022-12-03T21:32:48.575Z,10.17
2022-12-03T21:37:54.012Z,9.70
2022-12-03T21:43:03.730Z,9.80
2022-12-03T21:48:08.579Z,9.80
2022-12-03T21:53:15.213Z,10.10
2022-12-03T21:58:19.660Z,9.30
2022-12-03T22:03:24.076Z,9.50
2022-12-03T22:08:29.406Z,9.37
2022-12-03T22:13:33.289Z,9.63
2022-12-03T22:18:39.711Z,9.07
2022-12-03T22:23:45.385Z,10.30
2022-12-03T22:28:51.027Z,10.10
2022-12-03T22:33:54.645Z,10.00
2022-12-03T22:39:02.154Z,10.70
2022-12-03T22:44:06.011Z,10.43
2022-12-03T22:49:09.790Z,8.97
2022-12-03T22:54:18.283Z,9.67
2022-12-03T22:59:26.111Z,9.97
2022-12-03T23:04:29.853Z,9.60
2022-12-03T23:09:34.947Z,9.43
2022-12-03T23:14:38.560Z,9.33
2022-12-03T23:19:42.229Z,9.23
2022-12-03T23:24:47.340Z,9.70
2022-12-03T23:29:51.124Z,10.03
2022-12-03T23:34:55.269Z,9.47
2022-12-03T23:40:00.314Z,10.00
2022-12-03T23:45:03.993Z,8.17
2022-12-03T23:50:08.799Z,8.90
2022-12-03T23:55:13.893Z,9.30
